Time;durP1;ratioP1;P1;durP2;ratioP2;P2;SDS_P1;SDS_P2;PMS_P1;PMS_P2;Temp;Humidity;BMP_temperature;BMP_pressure;BME280_temperature;BME280_humidity;BME280_pressure;Samples;Min_cycle;Max_cycle;Signal;HPM_P1;HPM_P2
2022/03/06 00:01:45;;;;;;;;;;;;;;;7.71;33.80;100296.41;4399008;32;20001;-73
2022/03/06 00:04:12;;;;;;;;;;;;;;;7.72;33.84;100290.44;4399214;32;19998;-74
2022/03/06 00:06:39;;;;;;;;;;;;;;;7.76;33.80;100287.16;4400904;32;19974;-75
2022/03/06 00:09:06;;;;;;;;;;;;;;;7.56;34.30;100298.44;4400730;32;20001;-75
2022/03/06 00:11:33;;;;;;;;;;;;;;;7.70;34.54;100297.25;4405165;32;20587;-75
2022/03/06 00:13:59;;;;;;;;;;;;;;;7.73;34.90;100297.34;4401249;32;20100;-75
2022/03/06 00:16:27;;;;;;;;;;;;;;;7.73;35.12;100302.50;4410287;32;20035;-75
2022/03/06 00:18:54;;;;;;;;;;;;;;;7.49;35.52;100306.78;4398757;32;19982;-74
2022/03/06 00:21:21;;;;;;;;;;;;;;;7.51;35.80;100310.31;4401596;32;19997;-75
2022/03/06 00:23:48;;;;;;;;;;;;;;;7.37;35.60;100308.09;4409529;32;19995;-75
2022/03/06 00:26:15;;;;;;;;;;;;;;;7.33;35.93;100308.78;4402893;32;19996;-75
2022/03/06 00:28:41;;;;;;;;;;;;;;;7.17;35.98;100303.91;4401306;32;19982;-75
2022/03/06 00:31:08;;;;;;;;;;;;;;;7.07;36.22;100312.13;4399177;32;19978;-74
2022/03/06 00:33:35;;;;;;;;;;;;;;;7.08;35.81;100303.56;4400986;32;19990;-74
2022/03/06 00:36:03;;;;;;;;;;;;;;;6.88;36.70;100298.53;4402472;32;19982;-75
2022/03/06 00:38:29;;;;;;;;;;;;;;;7.03;36.80;100302.53;4406783;32;19990;-75
2022/03/06 00:40:56;;;;;;;;;;;;;;;6.85;37.64;100303.56;4415040;32;19978;-75
2022/03/06 00:43:23;;;;;;;;;;;;;;;6.78;36.72;100305.84;4420366;32;20002;-75
2022/03/06 00:45:50;;;;;;;;;;;;;;;6.85;37.10;100306.16;4409550;32;20267;-74
2022/03/06 00:48:18;;;;;;;;;;;;;;;6.80;37.57;100305.09;4402595;32;19986;-75
2022/03/06 00:50:45;;;;;;;;;;;;;;;6.81;37.64;100304.28;4399345;32;20037;-75
2022/03/06 00:53:11;;;;;;;;;;;;;;;6.68;37.68;100302.06;4401647;32;20023;-75
2022/03/06 00:55:39;;;;;;;;;;;;;;;6.77;37.13;100307.56;4411670;32;20001;-75
2022/03/06 00:58:05;;;;;;;;;;;;;;;6.56;37.79;100309.28;4400813;32;20008;-74
2022/03/06 01:00:35;;;;;;;;;;;;;;;6.62;37.44;100304.38;4408555;32;19992;-75
2022/03/06 01:03:06;;;;;;;;;;;;;;;6.57;37.62;100308.47;4400926;32;19987;-75
2022/03/06 01:05:34;;;;;;;;;;;;;;;6.47;37.92;100302.06;4400820;32;19974;-74
2022/03/06 01:08:01;;;;;;;;;;;;;;;6.36;38.24;100299.09;4401960;32;19982;-74
2022/03/06 01:10:28;;;;;;;;;;;;;;;6.09;39.46;100297.94;4404569;32;19997;-74
2022/03/06 01:12:54;;;;;;;;;;;;;;;6.22;38.86;100300.19;4400435;32;20005;-74
2022/03/06 01:15:22;;;;;;;;;;;;;;;6.02;39.17;100302.81;4400815;32;20004;-75
2022/03/06 01:17:49;;;;;;;;;;;;;;;6.08;38.82;100301.34;4408866;32;20338;-74
2022/03/06 01:20:17;;;;;;;;;;;;;;;6.11;38.65;100293.75;4412026;32;19986;-75
2022/03/06 01:22:44;;;;;;;;;;;;;;;5.86;39.18;100295.25;4402618;32;19998;-75
2022/03/06 01:25:12;;;;;;;;;;;;;;;5.86;39.12;100290.12;4406864;32;20040;-75
2022/03/06 01:27:38;;;;;;;;;;;;;;;5.80;40.00;100295.00;4399515;32;19978;-74
2022/03/06 01:30:06;;;;;;;;;;;;;;;5.65;39.97;100289.22;4391097;32;19990;-74
2022/03/06 01:32:33;;;;;;;;;;;;;;;5.55;40.46;100288.84;4417645;32;19990;-74
2022/03/06 01:35:00;;;;;;;;;;;;;;;5.56;39.98;100279.44;4424409;32;20340;-74
2022/03/06 01:37:27;;;;;;;;;;;;;;;5.75;39.87;100275.97;4431161;32;19986;-77
2022/03/06 01:39:54;;;;;;;;;;;;;;;5.73;40.06;100272.44;4431347;32;19989;-77
2022/03/06 01:42:20;;;;;;;;;;;;;;;5.44;40.66;100266.94;4426931;32;20038;-77
2022/03/06 01:44:51;;;;;;;;;;;;;;;5.67;39.76;100267.06;4424323;32;19985;-77
2022/03/06 01:47:35;;;;;;;;;;;;;;;5.72;39.37;100256.16;4415871;32;20452;-77
2022/03/06 01:50:03;;;;;;;;;;;;;;;5.35;40.64;100264.84;4416712;32;20004;-77
2022/03/06 01:52:30;;;;;;;;;;;;;;;5.41;40.56;100265.94;4422641;32;20043;-77
2022/03/06 01:54:57;;;;;;;;;;;;;;;5.22;40.69;100266.81;4415951;32;20028;-77
2022/03/06 01:57:24;;;;;;;;;;;;;;;5.37;40.47;100252.09;4415684;32;20036;-77
2022/03/06 01:59:51;;;;;;;;;;;;;;;5.48;40.22;100253.41;4416178;32;20033;-77
2022/03/06 02:02:18;;;;;;;;;;;;;;;5.50;40.56;100258.63;4423152;32;20388;-77
2022/03/06 02:04:45;;;;;;;;;;;;;;;5.26;41.10;100258.44;4426961;32;19978;-77
2022/03/06 02:07:12;;;;;;;;;;;;;;;5.21;40.78;100254.81;4397424;32;20390;-75
2022/03/06 02:09:39;;;;;;;;;;;;;;;5.35;40.63;100254.56;4422247;32;20019;-75
2022/03/06 02:12:21;;;;;;;;;;;;;;;5.36;40.71;100250.34;4423507;32;20012;-75
2022/03/06 02:14:55;;;;;;;;;;;;;;;5.31;41.57;100252.69;4424853;32;20692;-75
2022/03/06 02:17:22;;;;;;;;;;;;;;;5.10;41.30;100250.03;4415218;32;20359;-75
2022/03/06 02:19:52;;;;;;;;;;;;;;;5.00;41.62;100254.72;4428917;32;19977;-74
2022/03/06 02:22:19;;;;;;;;;;;;;;;5.17;40.93;100247.75;4421770;32;19986;-74
2022/03/06 02:24:46;;;;;;;;;;;;;;;5.06;41.53;100248.16;4426649;32;19965;-74
2022/03/06 02:27:13;;;;;;;;;;;;;;;5.25;40.97;100251.56;4415405;32;19993;-74
2022/03/06 02:29:40;;;;;;;;;;;;;;;5.08;41.20;100254.25;4417157;32;20002;-74
2022/03/06 02:32:12;;;;;;;;;;;;;;;5.09;41.36;100255.13;4421220;32;20027;-75
2022/03/06 02:34:39;;;;;;;;;;;;;;;5.12;41.31;100250.13;4415232;32;20025;-75
2022/03/06 02:37:06;;;;;;;;;;;;;;;5.04;41.73;100251.47;4415877;32;20031;-74
2022/03/06 02:39:33;;;;;;;;;;;;;;;5.06;41.08;100250.72;4416457;32;19988;-74
2022/03/06 02:42:01;;;;;;;;;;;;;;;4.97;41.35;100255.44;4421608;32;20465;-75
2022/03/06 02:44:28;;;;;;;;;;;;;;;5.13;40.94;100247.63;4430835;32;20023;-74
2022/03/06 02:46:55;;;;;;;;;;;;;;;4.96;41.23;100253.69;4419402;32;19982;-77
2022/03/06 02:49:22;;;;;;;;;;;;;;;4.96;41.70;100252.81;4414921;32;19986;-77
2022/03/06 02:51:51;;;;;;;;;;;;;;;5.00;41.46;100250.47;4419970;32;20041;-77
2022/03/06 02:54:18;;;;;;;;;;;;;;;4.92;41.56;100248.38;4429101;32;20023;-77
2022/03/06 02:56:44;;;;;;;;;;;;;;;4.95;41.50;100241.69;4414975;32;20027;-75
2022/03/06 02:59:11;;;;;;;;;;;;;;;4.97;41.46;100250.31;4415395;32;20009;-75
2022/03/06 03:01:41;;;;;;;;;;;;;;;4.89;41.67;100247.41;4423644;32;20007;-77
2022/03/06 03:04:09;;;;;;;;;;;;;;;5.05;41.33;100254.13;4414531;32;19986;-77
2022/03/06 03:06:36;;;;;;;;;;;;;;;4.78;42.20;100252.84;4415371;32;19990;-75
2022/03/06 03:09:04;;;;;;;;;;;;;;;4.85;41.77;100248.09;4414187;32;19993;-75
2022/03/06 03:11:31;;;;;;;;;;;;;;;4.64;42.55;100247.97;4423578;32;20773;-75
2022/03/06 03:13:59;;;;;;;;;;;;;;;4.75;42.34;100252.72;4414745;32;20019;-76
2022/03/06 03:16:26;;;;;;;;;;;;;;;4.74;42.12;100250.97;4421053;32;20002;-76
2022/03/06 03:18:53;;;;;;;;;;;;;;;4.66;42.15;100248.94;4415141;32;20021;-76
2022/03/06 03:21:19;;;;;;;;;;;;;;;4.70;42.12;100239.69;4418384;32;20037;-75
2022/03/06 03:23:47;;;;;;;;;;;;;;;4.63;42.07;100253.06;4417001;32;19974;-75
2022/03/06 03:26:13;;;;;;;;;;;;;;;4.58;42.40;100250.25;4420480;32;20059;-75
2022/03/06 03:28:40;;;;;;;;;;;;;;;4.47;42.79;100251.47;4418994;32;20000;-75
2022/03/06 03:31:07;;;;;;;;;;;;;;;4.55;42.44;100255.25;4423278;32;19982;-75
2022/03/06 03:33:34;;;;;;;;;;;;;;;4.54;42.40;100250.94;4424045;32;19973;-75
2022/03/06 03:36:02;;;;;;;;;;;;;;;4.37;42.71;100254.37;4425916;32;19985;-75
2022/03/06 03:38:29;;;;;;;;;;;;;;;4.55;42.27;100259.50;4419335;32;19985;-75
2022/03/06 03:40:55;;;;;;;;;;;;;;;4.38;42.87;100266.41;4418484;32;19978;-75
2022/03/06 03:43:22;;;;;;;;;;;;;;;4.40;42.74;100259.62;4432142;32;19994;-75
2022/03/06 03:45:49;;;;;;;;;;;;;;;4.49;42.34;100259.19;4421066;32;20351;-75
2022/03/06 03:48:20;;;;;;;;;;;;;;;4.36;42.37;100261.19;4416318;32;20052;-75
2022/03/06 03:50:46;;;;;;;;;;;;;;;4.37;42.74;100264.63;4417797;32;19985;-75
2022/03/06 03:53:13;;;;;;;;;;;;;;;4.41;42.60;100267.41;4363305;32;20013;-75
2022/03/06 03:55:40;;;;;;;;;;;;;;;4.38;42.51;100274.09;4416102;32;19997;-75
2022/03/06 03:58:07;;;;;;;;;;;;;;;4.24;42.54;100268.28;4413563;32;20020;-76
2022/03/06 04:00:34;;;;;;;;;;;;;;;4.13;42.74;100277.16;4418704;32;20000;-76
2022/03/06 04:03:02;;;;;;;;;;;;;;;4.19;42.70;100270.63;4422592;32;20264;-76
2022/03/06 04:05:29;;;;;;;;;;;;;;;4.13;43.19;100278.03;4421087;32;19982;-76
2022/03/06 04:07:55;;;;;;;;;;;;;;;4.01;43.20;100274.84;4400851;32;20105;-76
2022/03/06 04:10:23;;;;;;;;;;;;;;;4.14;42.79;100276.31;4400546;32;19982;-76
2022/03/06 04:12:49;;;;;;;;;;;;;;;4.23;42.65;100275.91;4400671;32;20870;-75
2022/03/06 04:15:16;;;;;;;;;;;;;;;4.15;42.72;100273.88;4399313;32;19982;-76
2022/03/06 04:17:43;;;;;;;;;;;;;;;4.16;42.92;100280.72;4405908;32;20000;-75
2022/03/06 04:20:10;;;;;;;;;;;;;;;4.29;42.45;100286.47;4416295;32;19985;-76
2022/03/06 04:22:37;;;;;;;;;;;;;;;4.35;42.32;100282.50;4415845;32;20028;-75
2022/03/06 04:25:04;;;;;;;;;;;;;;;4.18;42.96;100283.38;4411777;32;20322;-76
2022/03/06 04:27:31;;;;;;;;;;;;;;;4.05;43.09;100287.03;4411139;32;20013;-76
2022/03/06 04:29:58;;;;;;;;;;;;;;;4.07;43.03;100285.41;4409971;32;20442;-76
2022/03/06 04:32:25;;;;;;;;;;;;;;;4.02;42.75;100286.88;4401330;32;19982;-76
2022/03/06 04:34:52;;;;;;;;;;;;;;;4.03;42.96;100277.50;4411633;32;19979;-76
2022/03/06 04:37:18;;;;;;;;;;;;;;;3.99;43.44;100290.94;4401009;32;20009;-76
2022/03/06 04:39:45;;;;;;;;;;;;;;;3.72;43.41;100289.66;4401282;32;20002;-76
2022/03/06 04:42:12;;;;;;;;;;;;;;;3.94;43.13;100285.59;4402688;32;20008;-75
2022/03/06 04:44:39;;;;;;;;;;;;;;;3.84;43.73;100291.09;4410364;32;20000;-75
2022/03/06 04:47:06;;;;;;;;;;;;;;;3.85;43.97;100292.81;4399047;32;20000;-76
2022/03/06 04:49:33;;;;;;;;;;;;;;;3.83;43.68;100292.75;4404248;32;19990;-75
2022/03/06 04:52:00;;;;;;;;;;;;;;;3.78;43.50;100291.63;4412091;32;20032;-75
2022/03/06 04:54:27;;;;;;;;;;;;;;;3.92;43.27;100288.09;4398975;32;20000;-75
2022/03/06 04:56:54;;;;;;;;;;;;;;;3.91;43.40;100283.75;4403322;32;20036;-76
2022/03/06 04:59:21;;;;;;;;;;;;;;;3.93;43.45;100291.53;4417436;32;21361;-76
2022/03/06 05:01:48;;;;;;;;;;;;;;;3.36;44.42;100285.22;4400953;32;20345;-76
2022/03/06 05:04:15;;;;;;;;;;;;;;;3.64;44.04;100288.41;4400599;32;20021;-75
2022/03/06 05:06:41;;;;;;;;;;;;;;;3.60;43.98;100285.59;4409258;32;20032;-76
2022/03/06 05:09:08;;;;;;;;;;;;;;;3.82;43.74;100288.44;4400504;32;20327;-75
2022/03/06 05:11:35;;;;;;;;;;;;;;;3.63;44.22;100285.75;4399084;32;20019;-75
2022/03/06 05:14:02;;;;;;;;;;;;;;;3.46;44.75;100292.56;4400444;32;20401;-76
2022/03/06 05:16:29;;;;;;;;;;;;;;;3.48;44.25;100290.97;4400589;32;20003;-76
2022/03/06 05:18:56;;;;;;;;;;;;;;;3.14;45.23;100299.44;4403090;32;20437;-76
2022/03/06 05:21:23;;;;;;;;;;;;;;;3.33;44.80;100290.19;4412208;32;19982;-76
2022/03/06 05:23:50;;;;;;;;;;;;;;;3.62;44.41;100297.66;4402052;32;20013;-76
2022/03/06 05:26:17;;;;;;;;;;;;;;;3.46;44.59;100293.44;4419562;32;19994;-76
2022/03/06 05:28:44;;;;;;;;;;;;;;;3.41;44.76;100300.00;4416127;32;19989;-76
2022/03/06 05:31:11;;;;;;;;;;;;;;;3.63;44.58;100301.09;4422506;32;20334;-76
2022/03/06 05:33:37;;;;;;;;;;;;;;;3.70;44.26;100298.03;4415961;32;20008;-76
2022/03/06 05:36:05;;;;;;;;;;;;;;;3.76;44.21;100302.59;4415478;32;20006;-75
2022/03/06 05:38:32;;;;;;;;;;;;;;;3.61;44.09;100298.47;4423982;32;19997;-76
2022/03/06 05:40:59;;;;;;;;;;;;;;;3.50;44.09;100299.59;4385725;32;20503;-76
2022/03/06 05:43:25;;;;;;;;;;;;;;;3.77;43.49;100304.38;4369187;32;20046;-76
2022/03/06 05:45:52;;;;;;;;;;;;;;;3.58;44.08;100303.44;4365630;32;20248;-77
2022/03/06 05:48:19;;;;;;;;;;;;;;;3.85;43.55;100303.94;4368514;32;19997;-75
2022/03/06 05:50:46;;;;;;;;;;;;;;;3.93;43.69;100306.91;4368242;32;20651;-75
2022/03/06 05:53:13;;;;;;;;;;;;;;;4.17;43.20;100308.09;4373318;32;19997;-75
2022/03/06 05:55:40;;;;;;;;;;;;;;;4.36;43.24;100301.31;4395950;32;20426;-75
2022/03/06 05:58:07;;;;;;;;;;;;;;;4.42;43.12;100309.31;4399947;32;19977;-74
2022/03/06 06:00:34;;;;;;;;;;;;;;;4.62;42.86;100303.41;4392757;32;19978;-75
2022/03/06 06:03:02;;;;;;;;;;;;;;;4.53;42.87;100297.87;4395160;32;19998;-75
2022/03/06 06:05:29;;;;;;;;;;;;;;;4.92;42.52;100300.56;4391095;32;20045;-74
2022/03/06 06:07:56;;;;;;;;;;;;;;;4.87;42.52;100299.44;4398352;32;19997;-75
2022/03/06 06:10:23;;;;;;;;;;;;;;;5.00;41.98;100301.75;4421616;32;19985;-73
2022/03/06 06:12:50;;;;;;;;;;;;;;;4.76;42.32;100298.09;4415437;32;20001;-74
2022/03/06 06:15:16;;;;;;;;;;;;;;;5.17;41.38;100284.59;4419252;32;19994;-74
2022/03/06 06:17:43;;;;;;;;;;;;;;;5.27;41.03;100288.44;4426717;32;19982;-74
2022/03/06 06:20:11;;;;;;;;;;;;;;;5.41;39.96;100279.66;4430679;32;20023;-74
2022/03/06 06:22:37;;;;;;;;;;;;;;;5.45;39.38;100281.53;4425448;32;19986;-74
2022/03/06 06:25:04;;;;;;;;;;;;;;;5.81;39.13;100276.22;4414088;32;19989;-74
2022/03/06 06:27:31;;;;;;;;;;;;;;;5.97;38.05;100273.50;4411865;32;20005;-74
2022/03/06 06:29:58;;;;;;;;;;;;;;;5.83;38.43;100264.31;4432943;32;19981;-74
2022/03/06 06:32:25;;;;;;;;;;;;;;;6.01;37.99;100270.25;4427932;32;20338;-74
2022/03/06 06:34:51;;;;;;;;;;;;;;;5.88;37.88;100273.09;4425777;32;20864;-73
2022/03/06 06:37:18;;;;;;;;;;;;;;;6.04;38.24;100272.94;4429909;32;20030;-74
2022/03/06 06:39:45;;;;;;;;;;;;;;;6.13;37.66;100279.28;4430535;32;19981;-74
2022/03/06 06:42:12;;;;;;;;;;;;;;;6.28;37.38;100269.59;4430304;32;19989;-74
2022/03/06 06:44:38;;;;;;;;;;;;;;;6.59;37.16;100276.84;4424763;32;19986;-74
2022/03/06 06:47:12;;;;;;;;;;;;;;;6.82;36.65;100279.41;4430004;32;20004;-74
2022/03/06 06:49:38;;;;;;;;;;;;;;;6.69;37.00;100288.37;4430094;32;20716;-73
2022/03/06 06:52:07;;;;;;;;;;;;;;;7.13;36.78;100286.59;4427924;32;20000;-73
2022/03/06 06:54:34;;;;;;;;;;;;;;;7.42;35.26;100285.94;4421242;32;20009;-75
2022/03/06 06:57:01;;;;;;;;;;;;;;;7.73;34.71;100279.31;4429760;32;20356;-72
2022/03/06 06:59:28;;;;;;;;;;;;;;;7.99;33.79;100284.47;4430512;32;20009;-73
2022/03/06 07:01:55;;;;;;;;;;;;;;;8.02;34.20;100284.59;4427993;32;19981;-73
2022/03/06 07:04:23;;;;;;;;;;;;;;;8.45;33.79;100280.84;4435369;32;20061;-74
2022/03/06 07:06:50;;;;;;;;;;;;;;;8.60;32.49;100283.91;4431758;32;20335;-75
2022/03/06 07:09:17;;;;;;;;;;;;;;;8.59;32.79;100295.06;4434528;32;19978;-72
2022/03/06 07:11:44;;;;;;;;;;;;;;;8.67;32.01;100288.41;4429592;32;19993;-72
2022/03/06 07:14:10;;;;;;;;;;;;;;;8.87;32.18;100290.72;4428009;32;20468;-72
2022/03/06 07:16:37;;;;;;;;;;;;;;;9.02;31.76;100283.44;4425232;32;20371;-71
2022/03/06 07:19:04;;;;;;;;;;;;;;;9.42;30.85;100292.34;4429245;32;19973;-73
2022/03/06 07:21:31;;;;;;;;;;;;;;;9.24;31.09;100285.81;4428121;32;19985;-74
2022/03/06 07:23:58;;;;;;;;;;;;;;;9.53;31.26;100289.22;4426853;32;20326;-75
2022/03/06 07:26:25;;;;;;;;;;;;;;;10.08;30.17;100286.31;4424069;32;20652;-73
2022/03/06 07:28:57;;;;;;;;;;;;;;;10.40;29.57;100281.97;4418989;32;20026;-73
2022/03/06 07:31:24;;;;;;;;;;;;;;;10.46;28.76;100277.84;4423397;32;20017;-73
2022/03/06 07:33:51;;;;;;;;;;;;;;;10.74;28.72;100280.16;4442789;32;19989;-73
2022/03/06 07:36:17;;;;;;;;;;;;;;;11.18;28.68;100273.34;4427458;32;20346;-73
2022/03/06 07:38:44;;;;;;;;;;;;;;;11.26;27.98;100281.28;4431334;32;19996;-72
2022/03/06 07:41:12;;;;;;;;;;;;;;;11.60;27.97;100273.31;4438660;32;20113;-73
2022/03/06 07:43:39;;;;;;;;;;;;;;;11.65;27.39;100273.41;4422566;32;20028;-73
2022/03/06 07:46:06;;;;;;;;;;;;;;;11.86;25.94;100275.53;4427963;32;20328;-72
2022/03/06 07:48:32;;;;;;;;;;;;;;;11.95;26.80;100270.53;4427679;32;19985;-72
2022/03/06 07:50:59;;;;;;;;;;;;;;;12.20;26.33;100264.03;4438302;32;20042;-73
2022/03/06 07:53:26;;;;;;;;;;;;;;;12.30;26.92;100262.44;4435261;32;20023;-73
2022/03/06 07:55:53;;;;;;;;;;;;;;;12.70;26.25;100268.22;4435645;32;19990;-72
2022/03/06 07:58:20;;;;;;;;;;;;;;;12.73;25.84;100258.78;4423027;32;19999;-72
2022/03/06 08:00:48;;;;;;;;;;;;;;;13.12;24.89;100251.50;4424741;32;20855;-72
2022/03/06 08:03:15;;;;;;;;;;;;;;;12.99;25.11;100251.34;4424904;32;20492;-72
2022/03/06 08:05:43;;;;;;;;;;;;;;;13.43;25.04;100253.63;4424587;32;20052;-72
2022/03/06 08:08:10;;;;;;;;;;;;;;;13.42;24.59;100256.19;4430435;32;19991;-72
2022/03/06 08:10:37;;;;;;;;;;;;;;;13.21;24.96;100254.22;4426141;32;20004;-73
2022/03/06 08:13:03;;;;;;;;;;;;;;;13.47;23.96;100258.00;4426660;32;19990;-73
2022/03/06 08:15:30;;;;;;;;;;;;;;;13.28;24.64;100258.66;4442498;32;19982;-72
2022/03/06 08:17:57;;;;;;;;;;;;;;;13.39;23.92;100257.03;4429095;32;19977;-73
2022/03/06 08:20:24;;;;;;;;;;;;;;;13.14;24.00;100254.97;4425394;32;20013;-72
2022/03/06 08:22:51;;;;;;;;;;;;;;;12.87;24.57;100251.16;4426844;32;20000;-73
2022/03/06 08:25:20;;;;;;;;;;;;;;;12.92;24.69;100253.81;4428896;32;19978;-74
2022/03/06 08:27:47;;;;;;;;;;;;;;;12.89;24.85;100248.56;4425830;32;20036;-72
2022/03/06 08:30:14;;;;;;;;;;;;;;;12.87;24.44;100245.97;4428268;32;20031;-72
2022/03/06 08:32:41;;;;;;;;;;;;;;;12.92;23.87;100251.22;4431370;32;20012;-72
2022/03/06 08:35:08;;;;;;;;;;;;;;;13.05;24.59;100242.75;4427158;32;19986;-72
2022/03/06 08:37:36;;;;;;;;;;;;;;;12.87;24.45;100235.56;4433599;32;19981;-72
2022/03/06 08:40:03;;;;;;;;;;;;;;;12.68;24.44;100234.47;4426526;32;19990;-72
2022/03/06 08:42:30;;;;;;;;;;;;;;;12.91;24.33;100232.16;4418256;32;20019;-72
2022/03/06 08:44:57;;;;;;;;;;;;;;;13.01;24.32;100223.63;4423263;32;20342;-72
2022/03/06 08:47:24;;;;;;;;;;;;;;;12.92;24.15;100239.12;4414348;32;20015;-72
2022/03/06 08:49:50;;;;;;;;;;;;;;;12.74;24.24;100225.88;4414414;32;20005;-73
2022/03/06 08:52:17;;;;;;;;;;;;;;;12.63;24.25;100230.03;4426515;32;20004;-73
2022/03/06 08:54:44;;;;;;;;;;;;;;;12.61;24.45;100226.56;4415063;32;20519;-72
2022/03/06 08:57:11;;;;;;;;;;;;;;;12.69;24.29;100236.19;4415483;32;19962;-73
2022/03/06 08:59:37;;;;;;;;;;;;;;;12.84;23.84;100230.34;4415628;32;20339;-73
2022/03/06 09:02:05;;;;;;;;;;;;;;;12.81;24.66;100232.91;4421513;32;19993;-72
2022/03/06 09:04:33;;;;;;;;;;;;;;;12.84;24.20;100229.47;4434471;32;20005;-72
2022/03/06 09:07:00;;;;;;;;;;;;;;;12.93;24.12;100238.25;4423715;32;19982;-73
2022/03/06 09:09:27;;;;;;;;;;;;;;;12.83;23.81;100236.41;4417034;32;19990;-72
2022/03/06 09:11:54;;;;;;;;;;;;;;;13.07;23.18;100227.16;4424438;32;20900;-73
2022/03/06 09:14:20;;;;;;;;;;;;;;;12.72;24.09;100227.56;4435726;32;20298;-72
2022/03/06 09:16:47;;;;;;;;;;;;;;;12.97;23.25;100226.19;4420621;32;19989;-74
2022/03/06 09:19:14;;;;;;;;;;;;;;;12.97;24.06;100227.03;4421870;32;20039;-73
2022/03/06 09:21:43;;;;;;;;;;;;;;;12.87;23.72;100232.97;4413987;32;20733;-74
2022/03/06 09:24:11;;;;;;;;;;;;;;;12.88;23.82;100228.66;4415218;32;20008;-74
2022/03/06 09:26:37;;;;;;;;;;;;;;;13.10;23.36;100227.19;4426928;32;19993;-73
2022/03/06 09:29:05;;;;;;;;;;;;;;;12.91;23.53;100231.28;4415622;32;19990;-74
2022/03/06 09:31:32;;;;;;;;;;;;;;;12.86;23.51;100223.44;4419286;32;19997;-73
2022/03/06 09:33:59;;;;;;;;;;;;;;;12.64;23.66;100224.03;4404341;32;20008;-74
2022/03/06 09:36:43;;;;;;;;;;;;;;;12.51;23.87;100221.25;4415421;32;20307;-73
2022/03/06 09:39:10;;;;;;;;;;;;;;;12.56;24.13;100221.28;4422595;32;19993;-74
2022/03/06 09:41:40;;;;;;;;;;;;;;;12.69;24.03;100215.41;4415070;32;20267;-74
2022/03/06 09:44:07;;;;;;;;;;;;;;;12.32;24.37;100219.22;4419802;32;20006;-73
2022/03/06 09:46:35;;;;;;;;;;;;;;;12.62;24.21;100218.78;4419044;32;19973;-74
2022/03/06 09:49:02;;;;;;;;;;;;;;;12.77;23.83;100212.94;4415902;32;19994;-74
2022/03/06 09:51:33;;;;;;;;;;;;;;;12.94;23.55;100211.41;4414688;32;19986;-74
2022/03/06 09:53:59;;;;;;;;;;;;;;;13.01;23.64;100208.03;4426074;32;19990;-74
2022/03/06 09:56:26;;;;;;;;;;;;;;;12.86;24.45;100207.88;4414959;32;19978;-74
2022/03/06 09:58:53;;;;;;;;;;;;;;;13.03;23.43;100213.25;4415007;32;20004;-74
2022/03/06 10:01:20;;;;;;;;;;;;;;;12.62;26.15;100212.72;4415633;32;20068;-74
2022/03/06 10:03:47;;;;;;;;;;;;;;;12.71;24.80;100202.47;4414947;32;20023;-74
2022/03/06 10:06:14;;;;;;;;;;;;;;;13.02;23.79;100204.59;4418265;32;20386;-74
2022/03/06 10:08:41;;;;;;;;;;;;;;;13.26;24.13;100208.34;4431552;32;20000;-74
2022/03/06 10:11:09;;;;;;;;;;;;;;;13.04;23.50;100202.87;4415254;32;19986;-74
2022/03/06 10:13:36;;;;;;;;;;;;;;;13.32;24.29;100200.63;4416805;32;19982;-74
2022/03/06 10:16:18;;;;;;;;;;;;;;;13.21;24.39;100194.41;4435147;32;19974;-74
2022/03/06 10:18:47;;;;;;;;;;;;;;;12.98;24.06;100201.91;4424228;32;20343;-74
2022/03/06 10:21:15;;;;;;;;;;;;;;;13.20;23.27;100197.84;4429032;32;20673;-73
2022/03/06 10:23:42;;;;;;;;;;;;;;;12.60;24.42;100204.03;4422980;32;19989;-73
2022/03/06 10:26:10;;;;;;;;;;;;;;;12.40;24.39;100202.03;4417869;32;19996;-73
2022/03/06 10:28:51;;;;;;;;;;;;;;;12.56;24.37;100193.59;4417003;32;20044;-73
2022/03/06 10:31:19;;;;;;;;;;;;;;;11.77;25.42;100195.84;4418329;32;19981;-73
2022/03/06 10:34:04;;;;;;;;;;;;;;;12.04;24.85;100191.97;4435680;32;19999;-73
2022/03/06 10:36:36;;;;;;;;;;;;;;;12.36;24.66;100189.00;4428040;32;19992;-73
2022/03/06 10:39:10;;;;;;;;;;;;;;;12.61;24.46;100185.87;4425191;32;20372;-73
2022/03/06 10:41:38;;;;;;;;;;;;;;;12.73;24.51;100174.75;4418907;32;19994;-73
2022/03/06 10:44:06;;;;;;;;;;;;;;;12.93;24.34;100170.69;4421618;32;20681;-73
2022/03/06 10:46:34;;;;;;;;;;;;;;;13.11;23.96;100174.34;4417931;32;19973;-73
2022/03/06 10:49:07;;;;;;;;;;;;;;;12.84;23.78;100178.38;4414734;32;19986;-73
2022/03/06 10:51:42;;;;;;;;;;;;;;;12.32;24.79;100167.31;4425720;32;20408;-73
2022/03/06 10:54:09;;;;;;;;;;;;;;;12.53;24.49;100162.41;4414772;32;20005;-73
2022/03/06 10:56:36;;;;;;;;;;;;;;;12.59;24.30;100160.75;4426124;32;19970;-73
2022/03/06 10:59:03;;;;;;;;;;;;;;;12.40;24.75;100152.69;4414535;32;20370;-73
2022/03/06 11:01:31;;;;;;;;;;;;;;;12.65;24.88;100153.03;4435267;32;19985;-73
2022/03/06 11:03:58;;;;;;;;;;;;;;;12.76;24.36;100149.72;4432644;32;20007;-75
2022/03/06 11:06:26;;;;;;;;;;;;;;;12.89;24.19;100142.94;4426186;32;20043;-75
2022/03/06 11:08:53;;;;;;;;;;;;;;;13.03;24.35;100140.50;4421702;32;19985;-73
2022/03/06 11:11:21;;;;;;;;;;;;;;;12.72;24.54;100136.66;4413419;32;19997;-74
2022/03/06 11:13:48;;;;;;;;;;;;;;;12.30;25.09;100137.84;4426879;32;20864;-75
2022/03/06 11:16:15;;;;;;;;;;;;;;;12.89;24.39;100126.47;4422715;32;19974;-74
2022/03/06 11:18:42;;;;;;;;;;;;;;;12.89;25.41;100119.56;4430142;32;19977;-74
2022/03/06 11:21:08;;;;;;;;;;;;;;;13.19;23.90;100102.53;4439906;32;19982;-74
2022/03/06 11:24:02;;;;;;;;;;;;;;;13.23;23.86;100112.09;4423631;32;20035;-73
2022/03/06 11:26:43;;;;;;;;;;;;;;;12.80;25.62;100114.25;4422791;32;19977;-74
2022/03/06 11:29:29;;;;;;;;;;;;;;;13.16;24.63;100107.72;4427624;32;19989;-73
2022/03/06 11:31:56;;;;;;;;;;;;;;;12.90;24.24;100110.03;4419561;32;19973;-72
2022/03/06 11:34:27;;;;;;;;;;;;;;;12.76;24.78;100109.88;4425169;32;20316;-72
2022/03/06 11:36:54;;;;;;;;;;;;;;;13.04;24.14;100098.91;4429843;32;20342;-72
2022/03/06 11:39:30;;;;;;;;;;;;;;;13.45;23.34;100101.06;4427385;32;20027;-72
2022/03/06 11:41:58;;;;;;;;;;;;;;;13.51;23.39;100097.66;4422942;32;19993;-73
2022/03/06 11:44:35;;;;;;;;;;;;;;;13.38;23.74;100093.22;4434705;32;20471;-72
2022/03/06 11:47:12;;;;;;;;;;;;;;;13.15;23.51;100085.19;4428149;32;20369;-72
2022/03/06 11:49:39;;;;;;;;;;;;;;;13.30;23.71;100090.53;4428090;32;20339;-72
2022/03/06 11:52:25;;;;;;;;;;;;;;;13.11;25.06;100091.19;4440616;32;20032;-72
2022/03/06 11:54:53;;;;;;;;;;;;;;;13.13;24.29;100097.28;4436162;32;19989;-72
2022/03/06 11:57:36;;;;;;;;;;;;;;;13.30;23.92;100090.53;4424293;32;19981;-72
2022/03/06 12:00:19;;;;;;;;;;;;;;;13.31;23.45;100087.09;4423779;32;20033;-71
2022/03/06 12:02:47;;;;;;;;;;;;;;;12.95;24.70;100080.63;4429126;32;20079;-72
2022/03/06 12:05:16;;;;;;;;;;;;;;;12.67;25.36;100081.22;4419397;32;20300;-72
2022/03/06 12:07:45;;;;;;;;;;;;;;;12.95;23.80;100075.44;4422222;32;20040;-72
2022/03/06 12:10:13;;;;;;;;;;;;;;;13.37;23.30;100071.56;4438735;32;19974;-72
2022/03/06 12:12:40;;;;;;;;;;;;;;;13.14;23.70;100060.03;4434630;32;20050;-72
2022/03/06 12:15:16;;;;;;;;;;;;;;;13.49;23.96;100066.41;4428903;32;20029;-72
2022/03/06 12:17:44;;;;;;;;;;;;;;;13.37;24.74;100050.75;4431223;32;19974;-72
2022/03/06 12:20:12;;;;;;;;;;;;;;;13.33;23.37;100061.97;4428876;32;19995;-72
2022/03/06 12:22:48;;;;;;;;;;;;;;;13.62;22.81;100056.12;4426999;32;19992;-72
2022/03/06 12:25:16;;;;;;;;;;;;;;;13.09;23.46;100056.53;4426114;32;20000;-72
2022/03/06 12:27:43;;;;;;;;;;;;;;;13.44;23.61;100056.88;4430600;32;20000;-72
2022/03/06 12:30:11;;;;;;;;;;;;;;;13.71;22.83;100050.97;4439062;32;20127;-71
2022/03/06 12:32:39;;;;;;;;;;;;;;;12.88;24.72;100044.19;4418575;32;20012;-72
2022/03/06 12:35:08;;;;;;;;;;;;;;;13.35;23.73;100046.38;4444024;32;20054;-71
2022/03/06 12:37:35;;;;;;;;;;;;;;;13.75;23.23;100039.72;4431364;32;20023;-72
2022/03/06 12:40:07;;;;;;;;;;;;;;;13.98;22.31;100039.03;4421962;32;19982;-72
2022/03/06 12:42:34;;;;;;;;;;;;;;;13.75;23.39;100031.91;4417766;32;19985;-72
2022/03/06 12:45:03;;;;;;;;;;;;;;;13.45;25.12;100027.41;4430776;32;20020;-73
2022/03/06 12:47:30;;;;;;;;;;;;;;;13.18;23.54;100030.63;4423942;32;20029;-72